createdAt,value
2018-12-13T00:00:16.918Z,16.40
2018-12-13T00:02:43.275Z,15.83
2018-12-13T00:05:09.876Z,15.90
2018-12-13T00:07:36.467Z,16.00
2018-12-13T00:10:03.264Z,14.47
2018-12-13T00:12:29.859Z,14.93
2018-12-13T00:14:56.470Z,15.87
2018-12-13T00:17:22.995Z,14.83
2018-12-13T00:19:49.620Z,13.77
2018-12-13T00:22:16.092Z,14.43
2018-12-13T00:24:42.498Z,18.30
2018-12-13T00:27:08.971Z,15.67
2018-12-13T00:29:38.079Z,17.87
2018-12-13T00:32:04.686Z,17.40
2018-12-13T00:34:31.265Z,15.90
2018-12-13T00:36:57.986Z,18.60
2018-12-13T00:39:24.491Z,18.97
2018-12-13T00:41:51.223Z,20.03
2018-12-13T00:44:17.649Z,15.53
2018-12-13T00:46:44.243Z,15.57
2018-12-13T00:49:10.943Z,16.27
2018-12-13T00:51:37.559Z,11.47
2018-12-13T00:54:04.140Z,11.70
2018-12-13T00:56:30.630Z,10.37
2018-12-13T00:58:57.098Z,12.90
2018-12-13T01:01:23.698Z,12.20
2018-12-13T01:03:50.178Z,10.73
2018-12-13T01:06:16.808Z,13.40
2018-12-13T01:08:43.394Z,12.67
2018-12-13T01:11:09.872Z,10.70
2018-12-13T01:13:36.460Z,14.30
2018-12-13T01:16:03.055Z,13.77
2018-12-13T01:18:29.630Z,9.90
2018-12-13T01:20:56.003Z,12.53
2018-12-13T01:23:22.602Z,11.97
2018-12-13T01:25:49.066Z,12.30
2018-12-13T01:28:15.549Z,10.97
2018-12-13T01:30:42.021Z,10.83
2018-12-13T01:33:08.525Z,11.93
2018-12-13T01:35:35.219Z,12.40
2018-12-13T01:38:01.682Z,13.77
2018-12-13T01:40:28.032Z,11.67
2018-12-13T01:42:54.395Z,10.57
2018-12-13T01:45:20.975Z,12.67
2018-12-13T01:47:47.459Z,15.03
2018-12-13T01:50:13.920Z,14.77
2018-12-13T01:52:40.532Z,12.50
2018-12-13T01:55:07.117Z,12.90
2018-12-13T01:57:33.721Z,13.60
2018-12-13T02:00:00.261Z,11.33
2018-12-13T02:02:26.754Z,13.33
2018-12-13T02:04:53.459Z,15.50
2018-12-13T02:07:19.945Z,13.53
2018-12-13T02:09:46.518Z,11.87
2018-12-13T02:12:13.116Z,14.20
2018-12-13T02:14:39.718Z,16.00
2018-12-13T02:17:06.430Z,15.67
2018-12-13T02:19:33.029Z,15.47
2018-12-13T02:21:59.623Z,15.13
2018-12-13T02:24:26.330Z,14.23
2018-12-13T02:26:52.899Z,15.83
2018-12-13T02:29:19.435Z,14.00
2018-12-13T02:31:46.028Z,16.20
2018-12-13T02:34:12.636Z,15.90
2018-12-13T02:36:38.987Z,14.63
2018-12-13T02:39:06.010Z,16.67
2018-12-13T02:41:32.514Z,17.73
2018-12-13T02:43:59.003Z,17.70
2018-12-13T02:46:25.463Z,13.07
2018-12-13T02:48:53.987Z,16.33
2018-12-13T02:51:20.615Z,18.87
2018-12-13T02:53:47.230Z,18.60
2018-12-13T02:56:13.720Z,19.33
2018-12-13T02:58:40.224Z,16.17
2018-12-13T03:01:06.803Z,18.17
2018-12-13T03:03:33.286Z,18.33
2018-12-13T03:05:59.789Z,19.83
2018-12-13T03:08:26.149Z,19.53
2018-12-13T03:10:52.854Z,16.97
2018-12-13T03:13:19.453Z,15.20
2018-12-13T03:15:46.155Z,15.07
2018-12-13T03:18:12.743Z,19.37
2018-12-13T03:20:39.099Z,18.00
2018-12-13T03:23:05.596Z,18.77
2018-12-13T03:25:31.958Z,19.27
2018-12-13T03:27:58.563Z,16.10
2018-12-13T03:30:24.937Z,17.17
2018-12-13T03:32:51.543Z,16.50
2018-12-13T03:35:18.142Z,21.70
2018-12-13T03:37:44.631Z,19.23
2018-12-13T03:40:11.471Z,15.87
2018-12-13T03:42:38.238Z,20.07
2018-12-13T03:45:04.879Z,16.57
2018-12-13T03:47:31.471Z,17.20
2018-12-13T03:49:58.089Z,18.57
2018-12-13T03:52:24.434Z,17.07
2018-12-13T03:54:51.053Z,16.97
2018-12-13T03:57:17.535Z,18.13
2018-12-13T03:59:43.868Z,19.87
2018-12-13T04:02:10.462Z,20.13
2018-12-13T04:04:36.942Z,20.10
2018-12-13T04:07:03.439Z,20.43
2018-12-13T04:09:30.042Z,17.63
2018-12-13T04:11:56.544Z,20.07
2018-12-13T04:14:23.034Z,18.87
2018-12-13T04:16:49.545Z,20.87
2018-12-13T04:19:16.263Z,21.07
2018-12-13T04:21:42.727Z,19.33
2018-12-13T04:24:09.220Z,21.57
2018-12-13T04:26:35.606Z,21.23
2018-12-13T04:29:02.174Z,21.70
2018-12-13T04:31:28.798Z,20.03
2018-12-13T04:33:55.296Z,20.37
2018-12-13T04:36:21.791Z,19.93
2018-12-13T04:38:48.139Z,23.33
2018-12-13T04:41:14.747Z,20.43
2018-12-13T04:43:41.337Z,23.17
2018-12-13T04:46:07.826Z,25.00
2018-12-13T04:48:34.289Z,23.67
2018-12-13T04:51:00.899Z,22.97
2018-12-13T04:53:27.396Z,20.37
2018-12-13T04:55:53.959Z,20.87
2018-12-13T04:58:20.322Z,24.37
2018-12-13T05:00:46.906Z,25.03
2018-12-13T05:03:13.641Z,19.43
2018-12-13T05:05:40.223Z,20.57
2018-12-13T05:08:06.793Z,22.57
2018-12-13T05:10:35.128Z,20.00
2018-12-13T05:13:01.578Z,21.30
2018-12-13T05:15:28.167Z,22.73
2018-12-13T05:17:54.663Z,22.57
2018-12-13T05:20:21.238Z,22.23
2018-12-13T05:22:47.710Z,23.20
2018-12-13T05:25:14.223Z,21.87
2018-12-13T05:27:40.830Z,23.20
2018-12-13T05:30:07.485Z,29.03
2018-12-13T05:32:34.058Z,28.63
2018-12-13T05:35:00.416Z,22.00
2018-12-13T05:37:27.029Z,26.43
2018-12-13T05:39:53.634Z,24.10
2018-12-13T05:42:19.999Z,21.83
2018-12-13T05:44:46.582Z,22.03
2018-12-13T05:47:13.282Z,23.90
2018-12-13T05:49:39.775Z,23.83
2018-12-13T05:52:06.250Z,26.03
2018-12-13T05:54:32.837Z,23.43
2018-12-13T05:56:59.422Z,30.13
2018-12-13T05:59:26.011Z,24.10
2018-12-13T06:01:52.504Z,23.00
2018-12-13T06:04:19.120Z,25.97
2018-12-13T06:06:45.687Z,25.50
2018-12-13T06:09:12.202Z,25.50
2018-12-13T06:11:38.679Z,29.60
2018-12-13T06:14:05.271Z,24.57
2018-12-13T06:16:31.855Z,28.43
2018-12-13T06:18:58.372Z,27.77
2018-12-13T06:21:24.962Z,23.73
2018-12-13T06:23:51.662Z,31.93
2018-12-13T06:26:18.253Z,28.77
2018-12-13T06:28:44.771Z,26.13
2018-12-13T06:31:11.234Z,23.80
2018-12-13T06:33:37.823Z,22.57
2018-12-13T06:36:04.460Z,27.50
2018-12-13T06:38:30.917Z,31.77
2018-12-13T06:40:57.519Z,28.97
2018-12-13T06:43:23.999Z,33.07
2018-12-13T06:45:50.598Z,33.57
2018-12-13T06:48:17.300Z,33.20
2018-12-13T06:50:43.908Z,30.80
2018-12-13T06:53:10.395Z,26.23
2018-12-13T06:55:37.120Z,30.33
2018-12-13T06:58:03.595Z,25.27
2018-12-13T07:00:29.958Z,26.70
2018-12-13T07:02:56.571Z,30.23
2018-12-13T07:05:23.179Z,30.47
2018-12-13T07:07:49.773Z,28.33
2018-12-13T07:10:16.326Z,26.57
2018-12-13T07:12:42.953Z,27.70
2018-12-13T07:15:09.550Z,27.03
2018-12-13T07:17:35.912Z,32.50
2018-12-13T07:20:02.842Z,27.97
2018-12-13T07:22:29.370Z,27.27
2018-12-13T07:24:55.902Z,29.53
2018-12-13T07:27:22.662Z,32.13
2018-12-13T07:29:49.130Z,33.17
2018-12-13T07:32:15.863Z,32.77
2018-12-13T07:34:42.227Z,29.27
2018-12-13T07:37:08.810Z,28.67
2018-12-13T07:39:35.390Z,28.17
2018-12-13T07:42:02.011Z,32.17
2018-12-13T07:44:28.595Z,26.10
2018-12-13T07:46:54.958Z,30.80
2018-12-13T07:49:21.427Z,25.87
2018-12-13T07:51:48.147Z,26.87
2018-12-13T07:54:14.631Z,25.97
2018-12-13T07:56:40.982Z,28.17
2018-12-13T07:59:07.475Z,29.70
2018-12-13T08:01:34.085Z,29.17
2018-12-13T08:04:00.470Z,26.30
2018-12-13T08:06:27.065Z,26.37
2018-12-13T08:08:53.774Z,28.40
2018-12-13T08:11:20.491Z,29.77
2018-12-13T08:13:47.245Z,28.93
2018-12-13T08:16:13.894Z,30.43
2018-12-13T08:18:40.490Z,27.80
2018-12-13T08:21:06.947Z,31.73
2018-12-13T08:23:33.650Z,26.80
2018-12-13T08:26:00.362Z,25.83
2018-12-13T08:28:26.736Z,30.80
2018-12-13T08:30:53.317Z,27.77
2018-12-13T08:33:19.826Z,27.00
2018-12-13T08:35:46.522Z,28.47
2018-12-13T08:38:13.234Z,30.50
2018-12-13T08:40:39.722Z,27.13
2018-12-13T08:43:06.324Z,28.80
2018-12-13T08:45:32.794Z,31.53
2018-12-13T08:47:59.514Z,29.43
2018-12-13T08:50:26.100Z,32.90
2018-12-13T08:52:52.602Z,32.83
2018-12-13T08:55:19.078Z,30.63
2018-12-13T08:57:45.566Z,36.40
2018-12-13T09:00:12.142Z,30.43
2018-12-13T09:02:38.643Z,32.80
2018-12-13T09:05:05.208Z,34.37
2018-12-13T09:07:31.733Z,31.87
2018-12-13T09:09:58.223Z,32.23
2018-12-13T09:12:24.692Z,29.13
2018-12-13T09:14:51.289Z,31.47
2018-12-13T09:17:17.772Z,29.53
2018-12-13T09:19:44.266Z,27.23
2018-12-13T09:22:10.846Z,25.90
2018-12-13T09:24:37.315Z,24.33
2018-12-13T09:27:03.902Z,28.87
2018-12-13T09:29:30.611Z,23.37
2018-12-13T09:31:57.191Z,24.57
2018-12-13T09:34:23.655Z,26.43
2018-12-13T09:36:50.198Z,25.43
2018-12-13T09:39:16.821Z,25.40
2018-12-13T09:41:43.431Z,28.23
2018-12-13T09:44:11.954Z,24.13
2018-12-13T09:46:38.650Z,25.83
2018-12-13T09:49:05.227Z,24.43
2018-12-13T09:51:32.237Z,23.87
2018-12-13T09:53:58.806Z,21.80
2018-12-13T09:56:25.411Z,22.53
2018-12-13T09:58:51.990Z,24.13
2018-12-13T10:01:18.475Z,23.53
2018-12-13T10:03:44.938Z,20.33
2018-12-13T10:06:11.533Z,21.50
2018-12-13T10:08:37.883Z,21.47
2018-12-13T10:11:04.371Z,19.80
2018-12-13T10:13:30.946Z,21.60
2018-12-13T10:15:57.535Z,21.93
2018-12-13T10:18:24.001Z,23.43
2018-12-13T10:20:50.601Z,20.67
2018-12-13T10:23:17.180Z,19.20
2018-12-13T10:25:43.676Z,19.17
2018-12-13T10:28:10.495Z,21.13
2018-12-13T10:30:36.904Z,25.73
2018-12-13T10:33:03.543Z,17.40
2018-12-13T10:35:30.175Z,19.67
2018-12-13T10:37:56.638Z,16.23
2018-12-13T10:40:23.112Z,17.57
2018-12-13T10:42:49.587Z,20.77
2018-12-13T10:45:16.099Z,19.37
2018-12-13T10:47:42.579Z,20.47
2018-12-13T10:50:08.934Z,21.73
2018-12-13T10:52:35.301Z,22.10
2018-12-13T10:55:02.098Z,15.80
2018-12-13T10:57:28.699Z,17.80
2018-12-13T10:59:55.278Z,19.13
2018-12-13T11:02:23.787Z,17.53
2018-12-13T11:04:50.489Z,17.27
2018-12-13T11:07:17.086Z,15.17
2018-12-13T11:09:43.666Z,18.40
2018-12-13T11:12:10.268Z,16.40
2018-12-13T11:14:36.751Z,14.83
2018-12-13T11:17:03.448Z,14.70
2018-12-13T11:19:29.924Z,13.93
2018-12-13T11:21:56.514Z,17.43
2018-12-13T11:24:22.868Z,15.97
2018-12-13T11:26:49.467Z,16.23
2018-12-13T11:29:17.949Z,13.93
2018-12-13T11:31:44.546Z,16.77
2018-12-13T11:34:11.140Z,17.33
2018-12-13T11:36:37.593Z,14.87
2018-12-13T11:39:05.900Z,14.43
2018-12-13T11:41:32.702Z,17.90
2018-12-13T11:43:59.290Z,15.80
2018-12-13T11:46:25.651Z,15.73
2018-12-13T11:48:52.243Z,16.10
2018-12-13T11:51:18.871Z,16.63
2018-12-13T11:53:45.555Z,15.30
2018-12-13T11:56:12.050Z,18.00
2018-12-13T11:58:38.513Z,16.90
2018-12-13T12:01:05.003Z,15.53
2018-12-13T12:03:31.511Z,16.00
2018-12-13T12:05:58.584Z,21.30
2018-12-13T12:08:25.086Z,16.80
2018-12-13T12:10:51.440Z,20.00
2018-12-13T12:13:17.922Z,17.83
2018-12-13T12:15:44.890Z,21.33
2018-12-13T12:18:11.378Z,21.67
2018-12-13T12:20:37.899Z,21.33
2018-12-13T12:23:04.402Z,19.97
2018-12-13T12:25:30.889Z,16.17
2018-12-13T12:27:57.382Z,19.33
2018-12-13T12:30:24.075Z,24.30
2018-12-13T12:32:50.671Z,19.53
2018-12-13T12:35:17.022Z,21.27
2018-12-13T12:37:43.713Z,20.57
2018-12-13T12:40:10.291Z,22.50
2018-12-13T12:42:36.904Z,17.27
2018-12-13T12:45:03.994Z,20.27
2018-12-13T12:47:30.570Z,17.20
2018-12-13T12:49:57.079Z,18.27
2018-12-13T12:52:23.530Z,16.80
2018-12-13T12:54:50.045Z,21.03
2018-12-13T12:57:16.759Z,22.03
2018-12-13T12:59:43.253Z,20.00
2018-12-13T13:02:09.947Z,19.33
2018-12-13T13:04:36.376Z,22.63
2018-12-13T13:07:02.880Z,20.47
2018-12-13T13:09:29.460Z,16.90
2018-12-13T13:11:55.935Z,20.07
2018-12-13T13:14:22.418Z,19.50
2018-12-13T13:16:48.886Z,17.77
2018-12-13T13:19:15.381Z,18.50
2018-12-13T13:21:41.863Z,20.07
2018-12-13T13:24:08.536Z,18.07
2018-12-13T13:26:35.010Z,17.17
2018-12-13T13:29:01.486Z,16.80
2018-12-13T13:31:28.082Z,18.30
2018-12-13T13:33:54.571Z,18.80
2018-12-13T13:36:21.067Z,20.90
2018-12-13T13:38:47.668Z,17.83
2018-12-13T13:41:14.199Z,19.47
2018-12-13T13:43:40.806Z,18.90
2018-12-13T13:46:07.294Z,18.90
2018-12-13T13:48:33.662Z,22.57
2018-12-13T13:51:00.415Z,20.50
2018-12-13T13:53:26.791Z,19.43
2018-12-13T13:55:53.382Z,19.20
2018-12-13T13:58:19.862Z,20.33
2018-12-13T14:00:46.479Z,18.27
2018-12-13T14:03:13.050Z,18.50
2018-12-13T14:05:39.668Z,20.10
2018-12-13T14:08:06.203Z,20.03
2018-12-13T14:10:32.807Z,18.07
2018-12-13T14:12:59.292Z,25.17
2018-12-13T14:15:25.932Z,18.60
2018-12-13T14:17:52.406Z,17.70
2018-12-13T14:20:18.903Z,18.10
2018-12-13T14:22:45.809Z,17.97
2018-12-13T14:25:12.404Z,21.53
2018-12-13T14:27:39.142Z,18.00
2018-12-13T14:30:05.736Z,17.93
2018-12-13T14:32:32.230Z,18.33
2018-12-13T14:34:58.744Z,18.87
2018-12-13T14:37:25.321Z,20.07
2018-12-13T14:39:51.581Z,18.47
2018-12-13T14:42:18.175Z,22.43
2018-12-13T14:44:44.554Z,18.13
2018-12-13T14:47:11.082Z,18.10
2018-12-13T14:49:37.571Z,16.77
2018-12-13T14:52:04.290Z,20.90
2018-12-13T14:54:30.763Z,26.23
2018-12-13T14:56:57.267Z,17.53
2018-12-13T14:59:23.760Z,25.37
2018-12-13T15:01:50.246Z,21.07
2018-12-13T15:04:16.747Z,24.37
2018-12-13T15:06:43.332Z,19.60
2018-12-13T15:09:10.024Z,24.87
2018-12-13T15:11:36.618Z,21.43
2018-12-13T15:14:03.330Z,23.93
2018-12-13T15:16:29.810Z,21.03
2018-12-13T15:18:56.403Z,23.87
2018-12-13T15:21:22.894Z,23.60
2018-12-13T15:23:49.490Z,18.97
2018-12-13T15:26:15.968Z,20.03
2018-12-13T15:28:42.478Z,22.33
2018-12-13T15:31:08.962Z,20.33
2018-12-13T15:33:35.467Z,25.83
2018-12-13T15:36:02.060Z,21.77
2018-12-13T15:38:31.313Z,18.20
2018-12-13T15:40:57.794Z,21.27
2018-12-13T15:43:24.298Z,21.93
2018-12-13T15:45:50.791Z,19.80
2018-12-13T15:48:17.274Z,18.13
2018-12-13T15:50:43.638Z,21.17
2018-12-13T15:53:10.160Z,19.97
2018-12-13T15:55:36.646Z,19.97
2018-12-13T15:58:03.239Z,17.00
2018-12-13T16:00:29.595Z,23.87
2018-12-13T16:02:56.223Z,17.13
2018-12-13T16:05:22.818Z,20.47
2018-12-13T16:07:49.480Z,20.60
2018-12-13T16:10:16.273Z,29.20
2018-12-13T16:12:42.770Z,21.17
2018-12-13T16:15:09.291Z,24.37
2018-12-13T16:17:35.688Z,22.10
2018-12-13T16:20:02.391Z,18.30
2018-12-13T16:22:28.867Z,19.47
2018-12-13T16:24:55.451Z,18.30
2018-12-13T16:27:21.935Z,23.00
2018-12-13T16:29:48.766Z,20.33
2018-12-13T16:32:15.252Z,25.17
2018-12-13T16:34:41.865Z,23.87
2018-12-13T16:37:08.461Z,22.03
2018-12-13T16:39:34.964Z,22.97
2018-12-13T16:42:01.570Z,23.83
2018-12-13T16:44:28.086Z,21.47
2018-12-13T16:46:54.799Z,20.50
2018-12-13T16:49:21.270Z,30.10
2018-12-13T16:51:47.892Z,25.67
2018-12-13T16:54:14.453Z,21.07
2018-12-13T16:56:40.918Z,23.57
2018-12-13T16:59:08.367Z,23.43
2018-12-13T17:01:35.098Z,19.03
2018-12-13T17:04:01.594Z,20.67
2018-12-13T17:06:28.180Z,23.13
2018-12-13T17:08:54.912Z,23.80
2018-12-13T17:11:21.667Z,23.33
2018-12-13T17:13:48.154Z,19.70
2018-12-13T17:16:14.635Z,24.07
2018-12-13T17:18:41.119Z,25.73
2018-12-13T17:21:07.630Z,26.47
2018-12-13T17:23:34.231Z,24.50
2018-12-13T17:26:00.830Z,22.77
2018-12-13T17:28:27.446Z,22.47
2018-12-13T17:30:54.146Z,22.53
2018-12-13T17:33:20.735Z,23.13
2018-12-13T17:35:47.100Z,23.30
2018-12-13T17:38:13.825Z,25.97
2018-12-13T17:40:40.236Z,25.80
2018-12-13T17:43:06.842Z,22.23
2018-12-13T17:45:33.452Z,25.90
2018-12-13T17:48:00.042Z,22.43
2018-12-13T17:50:26.554Z,22.53
2018-12-13T17:52:53.162Z,23.27
2018-12-13T17:55:19.889Z,25.57
2018-12-13T17:57:46.396Z,20.63
2018-12-13T18:00:13.091Z,19.83
2018-12-13T18:02:39.598Z,21.10
2018-12-13T18:05:06.339Z,22.87
2018-12-13T18:07:33.050Z,21.30
2018-12-13T18:09:59.658Z,21.70
2018-12-13T18:12:26.121Z,22.90
2018-12-13T18:14:52.642Z,22.50
2018-12-13T18:17:21.961Z,22.73
2018-12-13T18:19:48.474Z,21.83
2018-12-13T18:22:15.077Z,23.13
2018-12-13T18:24:41.426Z,24.77
2018-12-13T18:27:07.939Z,21.70
2018-12-13T18:29:34.438Z,24.67
2018-12-13T18:32:04.153Z,21.97
2018-12-13T18:34:30.663Z,22.43
2018-12-13T18:36:57.149Z,27.07
2018-12-13T18:39:23.750Z,23.10
2018-12-13T18:41:50.364Z,25.77
2018-12-13T18:44:17.065Z,25.07
2018-12-13T18:46:43.683Z,22.50
2018-12-13T18:49:10.167Z,24.57
2018-12-13T18:51:36.772Z,25.90
2018-12-13T18:54:03.687Z,19.43
2018-12-13T18:56:30.379Z,24.87
2018-12-13T18:58:57.005Z,23.97
2018-12-13T19:01:23.508Z,20.93
2018-12-13T19:03:50.052Z,24.13
2018-12-13T19:06:16.535Z,20.83
2018-12-13T19:08:43.024Z,27.07
2018-12-13T19:11:09.927Z,25.13
2018-12-13T19:13:36.602Z,25.27
2018-12-13T19:16:03.142Z,23.53
2018-12-13T19:18:29.777Z,25.00
2018-12-13T19:20:56.146Z,26.63
2018-12-13T19:23:22.630Z,25.07
2018-12-13T19:25:49.235Z,24.13
2018-12-13T19:28:15.842Z,23.37
2018-12-13T19:30:42.549Z,21.63
2018-12-13T19:33:08.958Z,24.67
2018-12-13T19:35:35.534Z,25.93
2018-12-13T19:38:02.019Z,23.67
2018-12-13T19:40:28.620Z,26.03
2018-12-13T19:42:55.213Z,24.80
2018-12-13T19:45:21.932Z,24.10
2018-12-13T19:47:48.306Z,24.47
2018-12-13T19:50:15.047Z,26.03
2018-12-13T19:52:41.510Z,23.67
2018-12-13T19:55:08.054Z,25.17
2018-12-13T19:57:34.660Z,24.83
2018-12-13T20:00:01.149Z,25.17
2018-12-13T20:02:27.879Z,23.87
2018-12-13T20:04:54.368Z,24.30
2018-12-13T20:07:20.954Z,25.00
2018-12-13T20:09:47.451Z,22.73
2018-12-13T20:12:14.151Z,25.87
2018-12-13T20:14:40.862Z,25.67
2018-12-13T20:17:07.466Z,25.70
2018-12-13T20:19:34.081Z,27.20
2018-12-13T20:22:00.495Z,26.57
2018-12-13T20:24:26.868Z,25.03
2018-12-13T20:26:53.454Z,26.73
2018-12-13T20:29:20.170Z,25.00
2018-12-13T20:31:46.968Z,25.07
2018-12-13T20:34:13.338Z,25.23
2018-12-13T20:36:39.957Z,28.27
2018-12-13T20:39:08.008Z,23.30
2018-12-13T20:41:35.279Z,24.60
2018-12-13T20:44:01.865Z,23.90
2018-12-13T20:46:28.363Z,26.93
2018-12-13T20:48:55.083Z,24.63
2018-12-13T20:51:21.728Z,21.60
2018-12-13T20:53:48.325Z,26.93
2018-12-13T20:56:14.931Z,25.83
2018-12-13T20:58:41.475Z,21.20
2018-12-13T21:01:07.971Z,23.63
2018-12-13T21:03:34.455Z,25.57
2018-12-13T21:06:01.058Z,24.07
2018-12-13T21:08:27.823Z,20.27
2018-12-13T21:10:54.191Z,22.40
2018-12-13T21:13:20.715Z,23.00
2018-12-13T21:15:47.435Z,21.73
2018-12-13T21:18:14.135Z,23.07
2018-12-13T21:20:40.727Z,22.97
2018-12-13T21:23:07.442Z,20.37
2018-12-13T21:25:33.954Z,23.60
2018-12-13T21:28:00.460Z,25.17
2018-12-13T21:30:26.921Z,24.77
2018-12-13T21:32:53.394Z,21.47
2018-12-13T21:35:19.986Z,24.47
2018-12-13T21:37:46.363Z,22.27
2018-12-13T21:40:13.071Z,22.80
2018-12-13T21:42:39.663Z,21.80
2018-12-13T21:45:06.371Z,23.47
2018-12-13T21:47:32.874Z,22.90
2018-12-13T21:49:59.235Z,22.17
2018-12-13T21:52:25.858Z,21.13
2018-12-13T21:54:52.447Z,24.87
2018-12-13T21:57:20.467Z,21.77
2018-12-13T21:59:47.051Z,23.57
2018-12-13T22:02:13.539Z,25.63
2018-12-13T22:04:40.120Z,24.00
2018-12-13T22:07:06.822Z,26.90
2018-12-13T22:09:33.411Z,24.17
2018-12-13T22:11:59.919Z,24.43
2018-12-13T22:14:26.403Z,24.20
2018-12-13T22:16:52.991Z,27.80
2018-12-13T22:19:19.591Z,22.07
2018-12-13T22:21:46.046Z,28.83
2018-12-13T22:24:12.543Z,22.67
2018-12-13T22:26:38.861Z,25.27
2018-12-13T22:29:05.354Z,25.50
2018-12-13T22:31:31.847Z,21.27
2018-12-13T22:33:58.447Z,23.77
2018-12-13T22:36:24.923Z,24.23
2018-12-13T22:38:51.589Z,27.50
2018-12-13T22:41:18.119Z,23.20
2018-12-13T22:43:44.618Z,27.13
2018-12-13T22:46:11.331Z,25.27
2018-12-13T22:48:37.941Z,19.67
2018-12-13T22:51:04.558Z,24.53
2018-12-13T22:53:31.303Z,23.23
2018-12-13T22:55:57.767Z,25.43
2018-12-13T22:58:24.398Z,25.63
2018-12-13T23:00:51.094Z,28.27
2018-12-13T23:03:17.693Z,26.10
2018-12-13T23:05:44.394Z,25.57
2018-12-13T23:08:10.763Z,21.27
2018-12-13T23:10:37.455Z,24.00
2018-12-13T23:13:03.979Z,25.70
2018-12-13T23:15:30.578Z,23.73
2018-12-13T23:17:57.170Z,29.17
2018-12-13T23:20:23.771Z,27.83
2018-12-13T23:22:50.272Z,25.30
2018-12-13T23:25:17.034Z,24.77
2018-12-13T23:27:43.507Z,27.47
2018-12-13T23:30:10.210Z,26.90
2018-12-13T23:32:36.756Z,27.67
2018-12-13T23:35:03.962Z,29.37
2018-12-13T23:37:30.541Z,25.13
2018-12-13T23:39:57.087Z,22.60
2018-12-13T23:42:23.719Z,25.37
2018-12-13T23:44:50.345Z,25.07
2018-12-13T23:47:17.258Z,23.80
2018-12-13T23:49:43.681Z,23.20
2018-12-13T23:52:10.178Z,20.80
2018-12-13T23:54:36.681Z,24.20
2018-12-13T23:57:03.146Z,24.40
2018-12-13T23:59:29.643Z,24.63
